Cold Bay, AK

2:27 AM AKDT on August 01, 2014 (GMT -0800)
Cold Bay (PACD) Elev 102 ft | 55.22 °N, 162.73 °W | Change Station

Current weather conditions updated 34 minutes ago

Mostly Cloudy
Mostly Cloudy
53 °F
Feels Like 53 °F
N
5
Wind Variable Wind from South

Today is forecast to be Much Cooler than yesterday. Chance of showers tonight.

Today
High -- | Low -- °F
--% Chance of Precip.
Yesterday
High -- | Low -- °F
Precip. -- in
6:59 AM 10:53 PM
Waxing Crescent, 25% visible
Pressure 30.27 in
Visibility 10.0 miles
Clouds Few 15000 ft
Mostly Cloudy 25000 ft
Dew Point 50 °F
Humidity 89%
Rainfall 0.00 in
Snow Depth Not available.
UV 0 out of 12
Pollen Not available.
Air Quality Not available.
Flu Activity Not available.
METAR PACD 010953Z 19004KT 10SM FEW150 BKN250 12/10 A3027 RMK AO2 SLP251 T01170100

More Conditions Fewer Conditions

Pressure 30.27 in
Visibility 10.0 miles
Clouds Few 15000 ft
Mostly Cloudy 25000 ft
Dew Point 50 °F
Humidity 89%
Rainfall 0.00 in
Snow Depth Not available.
UV 0 out of 12
Pollen Not available.
Air Quality Not available.
Flu Activity Not available.
METAR PACD 010953Z 19004KT 10SM FEW150 BKN250 12/10 A3027 RMK AO2 SLP251 T01170100

More Conditions Fewer Conditions

10-Day Weather Forecast

Almanac

Astronomy

Aug. 01, 2014 Rise Set
Actual Time 6:59 AM AKDT 10:53 PM AKDT
Civil Twilight 6:12 AM AKDT 11:40 PM AKDT
Nautical Twilight 5:04 AM AKDT 12:46 AM AKDT
Astronomical Twilight 3:29 AM AKDT 2:24 AM AKDT
Moon 1:41 PM AKDT 12:13 AM AKDT
Length of Visible Light 17h 27m
Length of Day
15h 54m
Tomorrow will be 3m 46s shorter.
Waxing Crescent, 25% of the Moon is Illuminated
Today
Waxing Crescent
Aug 3
First Quarter
Aug 10
Full
Aug 17
Last Quarter
Aug 25
New

Today's Extremes

State Highs State Lows

Community

WunderPhotos

Upload Photos

1,739,534 photos uploaded!

Nearby

Snow Depth

Station Depth Elevation
Port Graham 0 in 300 ft
Mcneil Canyon 1 in 1320 ft
Nuka Glacier 0 in 1250 ft
MF Bradley River 225 in 2300 ft
Cooper Lake 16 in 1200 ft

Earthquake Activity

City Distance Mag. Time & Date
No recent earthquake activity has been reported nearby.
Minimum magnitude displayed is 2.5.

Coastal Water Temperatures

Place Temperature
No Stations Reporting

Nearby Weather Stations

Station Location Temp. Dew Point Humidity Wind Precip. Elev Updated Type
HADS RUSSELL C NR COLD BAY AK , Cold Bay, AK 50 °F - - North  at  - 0.00 in / hr 66 ft 1:00 AM AKDT MADIS

Show More Stations Show Fewer Stations